createdAt,value
2019-05-14T00:00:14.875Z,335
2019-05-14T00:01:17.076Z,331
2019-05-14T00:02:19.458Z,339
2019-05-14T00:03:21.698Z,347
2019-05-14T00:04:23.887Z,329
2019-05-14T00:05:26.278Z,338
2019-05-14T00:06:28.572Z,346
2019-05-14T00:07:30.740Z,358
2019-05-14T00:08:33.057Z,346
2019-05-14T00:09:35.296Z,381
2019-05-14T00:10:37.864Z,378
2019-05-14T00:11:39.809Z,373
2019-05-14T00:12:42.114Z,382
2019-05-14T00:13:44.411Z,424
2019-05-14T00:14:46.678Z,411
2019-05-14T00:15:48.943Z,414
2019-05-14T00:16:51.194Z,436
2019-05-14T00:17:53.478Z,424
2019-05-14T00:18:55.795Z,434
2019-05-14T00:19:58.060Z,433
2019-05-14T00:21:00.326Z,430
2019-05-14T00:22:02.531Z,416
2019-05-14T00:23:05.847Z,405
2019-05-14T00:24:07.137Z,438
2019-05-14T00:25:09.413Z,401
2019-05-14T00:26:11.656Z,417
2019-05-14T00:27:13.988Z,402
2019-05-14T00:28:16.212Z,414
2019-05-14T00:29:20.761Z,424
2019-05-14T00:30:20.740Z,424
2019-05-14T00:31:22.996Z,411
2019-05-14T00:32:25.339Z,412
2019-05-14T00:33:27.552Z,419
2019-05-14T00:34:35.996Z,418
2019-05-14T00:35:32.113Z,411
2019-05-14T00:36:34.394Z,419
2019-05-14T00:37:36.764Z,420
2019-05-14T00:38:39.002Z,418
2019-05-14T00:39:41.474Z,409
2019-05-14T00:40:46.144Z,421
2019-05-14T00:41:45.815Z,424
2019-05-14T00:42:48.110Z,411
2019-05-14T00:43:50.419Z,420
2019-05-14T00:44:52.663Z,424
2019-05-14T00:45:54.860Z,418
2019-05-14T00:46:57.303Z,395
2019-05-14T00:47:59.396Z,404
2019-05-14T00:49:01.693Z,400
2019-05-14T00:50:04.108Z,399
2019-05-14T00:51:06.210Z,404
2019-05-14T00:52:08.479Z,397
2019-05-14T00:53:10.766Z,391
2019-05-14T00:54:13.042Z,391
2019-05-14T00:55:15.301Z,394
2019-05-14T00:56:17.576Z,407
2019-05-14T00:57:19.853Z,381
2019-05-14T00:58:22.155Z,403
2019-05-14T00:59:24.395Z,406
2019-05-14T01:00:26.672Z,380
2019-05-14T01:01:29.022Z,390
2019-05-14T01:02:31.269Z,398
2019-05-14T01:03:33.500Z,388
2019-05-14T01:04:35.754Z,394
2019-05-14T01:05:38.029Z,369
2019-05-14T01:06:40.381Z,394
2019-05-14T01:07:42.634Z,392
2019-05-14T01:08:44.949Z,398
2019-05-14T01:09:47.413Z,401
2019-05-14T01:10:49.419Z,405
2019-05-14T01:11:51.705Z,405
2019-05-14T01:12:54.130Z,452
2019-05-14T01:13:56.250Z,392
2019-05-14T01:14:58.531Z,382
2019-05-14T01:16:04.126Z,384
2019-05-14T01:17:03.072Z,396
2019-05-14T01:18:05.574Z,393
2019-05-14T01:19:07.610Z,428
2019-05-14T01:20:09.969Z,463
2019-05-14T01:21:12.138Z,499
2019-05-14T01:22:18.386Z,504
2019-05-14T01:23:16.736Z,531
2019-05-14T01:24:18.985Z,497
2019-05-14T01:25:21.406Z,517
2019-05-14T01:26:23.559Z,506
2019-05-14T01:27:25.789Z,502
2019-05-14T01:28:28.249Z,529
2019-05-14T01:29:30.398Z,506
2019-05-14T01:30:32.659Z,487
2019-05-14T01:31:34.868Z,503
2019-05-14T01:32:37.180Z,495
2019-05-14T01:33:39.434Z,480
2019-05-14T01:34:41.734Z,504
2019-05-14T01:35:44.204Z,466
2019-05-14T01:36:46.339Z,461
2019-05-14T01:37:48.658Z,455
2019-05-14T01:38:52.758Z,494
2019-05-14T01:39:53.341Z,460
2019-05-14T01:40:55.458Z,485
2019-05-14T01:41:57.880Z,460
2019-05-14T01:43:00.256Z,469
2019-05-14T01:44:06.103Z,465
2019-05-14T01:45:04.616Z,451
2019-05-14T01:46:06.971Z,472
2019-05-14T01:47:09.191Z,460
2019-05-14T01:48:11.465Z,445
2019-05-14T01:49:13.975Z,459
2019-05-14T01:50:16.018Z,445
2019-05-14T01:51:18.261Z,474
2019-05-14T01:52:20.537Z,468
2019-05-14T01:53:22.854Z,466
2019-05-14T01:54:25.074Z,461
2019-05-14T01:55:27.458Z,453
2019-05-14T01:56:29.700Z,460
2019-05-14T01:57:31.950Z,457
2019-05-14T01:58:34.179Z,456
2019-05-14T01:59:36.652Z,438
2019-05-14T02:00:38.854Z,456
2019-05-14T02:01:41.321Z,445
2019-05-14T02:02:43.261Z,426
2019-05-14T02:03:45.603Z,457
2019-05-14T02:04:51.476Z,438
2019-05-14T02:05:50.103Z,423
2019-05-14T02:06:52.548Z,443
2019-05-14T02:07:54.655Z,448
2019-05-14T02:08:56.899Z,439
2019-05-14T02:10:00.810Z,412
2019-05-14T02:11:01.549Z,475
2019-05-14T02:12:03.791Z,446
2019-05-14T02:13:05.999Z,429
2019-05-14T02:14:08.355Z,419
2019-05-14T02:15:10.822Z,419
2019-05-14T02:16:12.822Z,400
2019-05-14T02:17:15.206Z,414
2019-05-14T02:18:17.354Z,436
2019-05-14T02:19:19.672Z,437
2019-05-14T02:20:21.916Z,414
2019-05-14T02:21:24.181Z,422
2019-05-14T02:22:26.453Z,386
2019-05-14T02:23:28.730Z,413
2019-05-14T02:24:30.996Z,409
2019-05-14T02:25:33.272Z,386
2019-05-14T02:26:35.554Z,406
2019-05-14T02:27:37.861Z,409
2019-05-14T02:28:40.164Z,417
2019-05-14T02:29:42.371Z,395
2019-05-14T02:30:44.704Z,394
2019-05-14T02:31:46.908Z,429
2019-05-14T02:32:49.208Z,370
2019-05-14T02:33:51.651Z,361
2019-05-14T02:34:53.772Z,373
2019-05-14T02:35:56.015Z,375
2019-05-14T02:36:58.341Z,394
2019-05-14T02:38:00.631Z,432
2019-05-14T02:39:02.923Z,396
2019-05-14T02:40:06.171Z,454
2019-05-14T02:41:07.590Z,454
2019-05-14T02:42:09.765Z,417
2019-05-14T02:43:12.112Z,428
2019-05-14T02:44:14.330Z,441
2019-05-14T02:45:16.576Z,428
2019-05-14T02:46:18.964Z,425
2019-05-14T02:47:21.133Z,409
2019-05-14T02:48:23.387Z,405
2019-05-14T02:49:25.722Z,448
2019-05-14T02:50:28.053Z,429
2019-05-14T02:51:30.258Z,422
2019-05-14T02:52:32.493Z,434
2019-05-14T02:53:34.751Z,413
2019-05-14T02:54:37.135Z,396
2019-05-14T02:55:39.346Z,411
2019-05-14T02:56:41.659Z,392
2019-05-14T02:57:43.873Z,407
2019-05-14T02:58:46.201Z,406
2019-05-14T02:59:48.444Z,402
2019-05-14T03:00:50.757Z,404
2019-05-14T03:01:53.924Z,422
2019-05-14T03:02:55.285Z,418
2019-05-14T03:03:57.500Z,413
2019-05-14T03:04:59.837Z,403
2019-05-14T03:06:02.234Z,377
2019-05-14T03:07:04.460Z,416
2019-05-14T03:08:06.711Z,395
2019-05-14T03:09:08.877Z,389
2019-05-14T03:10:16.113Z,377
2019-05-14T03:11:13.417Z,394
2019-05-14T03:12:15.814Z,404
2019-05-14T03:13:17.955Z,419
2019-05-14T03:14:20.267Z,432
2019-05-14T03:15:22.592Z,439
2019-05-14T03:16:24.841Z,445
2019-05-14T03:17:27.060Z,457
2019-05-14T03:18:29.403Z,437
2019-05-14T03:19:31.690Z,389
2019-05-14T03:20:33.906Z,464
2019-05-14T03:21:36.192Z,432
2019-05-14T03:22:38.627Z,439
2019-05-14T03:23:40.714Z,429
2019-05-14T03:24:42.979Z,440
2019-05-14T03:25:45.746Z,427
2019-05-14T03:26:47.602Z,467
2019-05-14T03:27:49.913Z,433
2019-05-14T03:28:52.220Z,425
2019-05-14T03:29:54.374Z,459
2019-05-14T03:30:56.610Z,411
2019-05-14T03:31:58.897Z,418
2019-05-14T03:33:01.198Z,408
2019-05-14T03:34:03.486Z,411
2019-05-14T03:35:05.827Z,416
2019-05-14T03:36:08.094Z,442
2019-05-14T03:37:10.282Z,390
2019-05-14T03:38:12.643Z,397
2019-05-14T03:39:14.815Z,406
2019-05-14T03:40:17.270Z,417
2019-05-14T03:41:19.384Z,434
2019-05-14T03:42:21.671Z,420
2019-05-14T03:43:24.095Z,423
2019-05-14T03:44:26.286Z,414
2019-05-14T03:45:28.624Z,392
2019-05-14T03:46:30.865Z,411
2019-05-14T03:47:33.143Z,433
2019-05-14T03:48:35.422Z,425
2019-05-14T03:49:37.779Z,399
2019-05-14T03:50:39.958Z,436
2019-05-14T03:51:42.190Z,415
2019-05-14T03:52:44.468Z,415
2019-05-14T03:53:46.887Z,391
2019-05-14T03:54:49.017Z,433
2019-05-14T03:55:51.372Z,396
2019-05-14T03:56:53.727Z,393
2019-05-14T03:57:55.955Z,362
2019-05-14T03:58:58.207Z,408
2019-05-14T04:00:00.412Z,403
2019-05-14T04:01:02.685Z,398
2019-05-14T04:02:04.955Z,433
2019-05-14T04:03:07.210Z,369
2019-05-14T04:04:09.547Z,383
2019-05-14T04:05:11.773Z,392
2019-05-14T04:06:14.061Z,350
2019-05-14T04:07:16.444Z,371
2019-05-14T04:08:18.591Z,388
2019-05-14T04:09:20.849Z,395
2019-05-14T04:10:23.167Z,368
2019-05-14T04:11:25.386Z,370
2019-05-14T04:12:27.684Z,376
2019-05-14T04:13:30.048Z,433
2019-05-14T04:14:36.002Z,395
2019-05-14T04:15:34.502Z,377
2019-05-14T04:16:36.794Z,401
2019-05-14T04:17:39.081Z,423
2019-05-14T04:18:41.339Z,391
2019-05-14T04:19:43.612Z,392
2019-05-14T04:20:45.937Z,385
2019-05-14T04:21:48.227Z,388
2019-05-14T04:22:50.448Z,402
2019-05-14T04:23:52.706Z,398
2019-05-14T04:24:55.456Z,410
2019-05-14T04:25:57.244Z,391
2019-05-14T04:26:59.504Z,386
2019-05-14T04:28:02.169Z,411
2019-05-14T04:29:04.052Z,426
2019-05-14T04:30:06.444Z,418
2019-05-14T04:31:08.875Z,467
2019-05-14T04:32:10.872Z,454
2019-05-14T04:33:13.178Z,451
2019-05-14T04:34:15.485Z,448
2019-05-14T04:35:17.740Z,432
2019-05-14T04:36:20.077Z,463
2019-05-14T04:37:22.239Z,433
2019-05-14T04:38:24.511Z,427
2019-05-14T04:39:26.799Z,390
2019-05-14T04:40:29.102Z,434
2019-05-14T04:41:31.339Z,407
2019-05-14T04:42:33.803Z,389
2019-05-14T04:43:35.983Z,435
2019-05-14T04:44:38.268Z,437
2019-05-14T04:45:40.606Z,401
2019-05-14T04:46:42.856Z,415
2019-05-14T04:47:45.077Z,398
2019-05-14T04:48:47.400Z,395
2019-05-14T04:49:49.642Z,423
2019-05-14T04:50:51.979Z,383
2019-05-14T04:51:54.177Z,412
2019-05-14T04:52:56.473Z,421
2019-05-14T04:53:58.780Z,394
2019-05-14T04:55:01.042Z,404
2019-05-14T04:56:03.297Z,407
2019-05-14T04:57:05.974Z,403
2019-05-14T04:58:08.036Z,406
2019-05-14T04:59:10.132Z,391
2019-05-14T05:00:12.413Z,367
2019-05-14T05:01:14.664Z,350
2019-05-14T05:02:17.008Z,396
2019-05-14T05:03:19.251Z,425
2019-05-14T05:04:21.530Z,395
2019-05-14T05:05:23.751Z,409
2019-05-14T05:06:26.131Z,439
2019-05-14T05:07:28.306Z,436
2019-05-14T05:08:30.639Z,443
2019-05-14T05:09:32.927Z,430
2019-05-14T05:10:35.212Z,526
2019-05-14T05:11:37.488Z,497
2019-05-14T05:12:39.719Z,438
2019-05-14T05:13:41.937Z,423
2019-05-14T05:14:44.208Z,476
2019-05-14T05:15:46.663Z,421
2019-05-14T05:16:48.873Z,425
2019-05-14T05:17:51.408Z,429
2019-05-14T05:18:53.398Z,424
2019-05-14T05:19:55.586Z,436
2019-05-14T05:20:57.901Z,428
2019-05-14T05:22:00.128Z,418
2019-05-14T05:23:02.421Z,444
2019-05-14T05:24:04.709Z,439
2019-05-14T05:25:07.022Z,445
2019-05-14T05:26:09.262Z,456
2019-05-14T05:27:11.520Z,581
2019-05-14T05:28:14.064Z,516
2019-05-14T05:29:16.094Z,431
2019-05-14T05:30:18.359Z,410
2019-05-14T05:31:20.661Z,349
2019-05-14T05:32:23.157Z,407
2019-05-14T05:33:25.166Z,456
2019-05-14T05:34:27.458Z,422
2019-05-14T05:35:29.925Z,290
2019-05-14T05:36:32.069Z,276
2019-05-14T05:37:34.341Z,311
2019-05-14T05:38:40.533Z,240
2019-05-14T05:39:39.611Z,217
2019-05-14T05:40:41.524Z,185
2019-05-14T05:41:43.437Z,152
2019-05-14T05:42:45.729Z,124
2019-05-14T05:43:51.322Z,99
2019-05-14T05:44:50.367Z,106
2019-05-14T05:45:52.859Z,106
2019-05-14T05:46:54.821Z,122
2019-05-14T05:47:57.202Z,111
2019-05-14T05:48:59.380Z,102
2019-05-14T05:50:01.672Z,112
2019-05-14T05:51:03.938Z,88
2019-05-14T05:52:06.212Z,87
2019-05-14T05:53:08.550Z,80
2019-05-14T05:54:10.748Z,63
2019-05-14T05:56:15.322Z,45
2019-05-14T05:57:17.577Z,52
2019-05-14T05:58:19.870Z,54
2019-05-14T05:59:22.105Z,44
2019-05-14T06:00:24.442Z,27
2019-05-14T06:01:26.668Z,36
2019-05-14T06:02:28.956Z,29
2019-05-14T06:03:31.261Z,28
2019-05-14T06:04:33.610Z,26
2019-05-14T06:05:35.755Z,31
2019-05-14T06:06:38.059Z,20
2019-05-14T06:07:40.363Z,19
2019-05-14T06:08:42.683Z,21
2019-05-14T06:09:44.886Z,14
2019-05-14T06:10:47.192Z,15
2019-05-14T06:11:49.564Z,15
2019-05-14T06:12:51.693Z,22
2019-05-14T06:13:54.200Z,40
2019-05-14T06:14:56.215Z,45
2019-05-14T06:15:58.544Z,62
2019-05-14T06:17:03.929Z,84
2019-05-14T06:18:03.252Z,94
2019-05-14T06:19:05.590Z,98
2019-05-14T06:20:07.634Z,107
2019-05-14T06:21:09.934Z,106
2019-05-14T06:22:12.200Z,129
2019-05-14T06:23:14.406Z,131
2019-05-14T06:24:16.803Z,125
2019-05-14T06:25:19.030Z,129
2019-05-14T06:26:21.363Z,126
2019-05-14T06:27:23.551Z,138
2019-05-14T06:28:25.802Z,155
2019-05-14T06:29:28.092Z,148
2019-05-14T06:30:30.346Z,145
2019-05-14T06:31:32.790Z,145
2019-05-14T06:32:35.041Z,135
2019-05-14T06:33:37.236Z,149
2019-05-14T06:34:39.408Z,145
2019-05-14T06:35:42.054Z,137
2019-05-14T06:36:44.022Z,139
2019-05-14T06:37:46.276Z,143
2019-05-14T06:38:48.549Z,120
2019-05-14T06:39:54.288Z,129
2019-05-14T06:42:57.745Z,138
2019-05-14T06:43:59.956Z,123
2019-05-14T06:45:02.321Z,137
2019-05-14T06:46:08.769Z,133
2019-05-14T06:47:08.136Z,131
2019-05-14T06:48:08.989Z,120
2019-05-14T06:49:11.323Z,123
2019-05-14T06:50:13.626Z,135
2019-05-14T06:51:19.399Z,132
2019-05-14T06:52:18.178Z,129
2019-05-14T06:53:20.363Z,127
2019-05-14T06:54:22.655Z,121
2019-05-14T06:55:25.015Z,127
2019-05-14T06:56:27.220Z,141
2019-05-14T06:57:29.442Z,133
2019-05-14T06:58:31.812Z,133
2019-05-14T06:59:33.998Z,133
2019-05-14T07:00:36.372Z,123
2019-05-14T07:01:38.562Z,136
2019-05-14T07:02:41.247Z,141
2019-05-14T07:03:43.085Z,128
2019-05-14T07:04:45.457Z,129
2019-05-14T07:05:47.635Z,129
2019-05-14T07:06:49.948Z,125
2019-05-14T07:07:56.741Z,136
2019-05-14T07:08:54.451Z,133
2019-05-14T07:09:57.723Z,124
2019-05-14T07:10:58.969Z,136
2019-05-14T07:12:01.252Z,130
2019-05-14T07:13:03.593Z,122
2019-05-14T07:14:05.796Z,124
2019-05-14T07:15:08.189Z,124
2019-05-14T07:16:10.399Z,135
2019-05-14T07:17:12.795Z,118
2019-05-14T07:18:14.875Z,127
2019-05-14T07:19:17.158Z,125
2019-05-14T07:20:22.649Z,130
2019-05-14T07:21:21.879Z,124
2019-05-14T07:22:24.059Z,119
2019-05-14T07:23:26.267Z,122
2019-05-14T07:24:28.623Z,122
2019-05-14T07:25:30.797Z,121
2019-05-14T07:26:33.113Z,118
2019-05-14T07:27:36.720Z,114
2019-05-14T07:28:37.769Z,119
2019-05-14T07:29:39.924Z,114
2019-05-14T07:30:42.157Z,119
2019-05-14T07:31:44.474Z,125
2019-05-14T07:32:46.695Z,117
2019-05-14T07:33:49.111Z,120
2019-05-14T07:34:51.362Z,125
2019-05-14T07:35:53.547Z,124
2019-05-14T07:36:55.929Z,120
2019-05-14T07:37:58.167Z,120
2019-05-14T07:39:00.339Z,123
2019-05-14T07:40:03.552Z,119
2019-05-14T07:41:04.876Z,119
2019-05-14T07:42:07.141Z,118
2019-05-14T07:43:09.510Z,129
2019-05-14T07:44:11.774Z,129
2019-05-14T07:45:13.956Z,133
2019-05-14T07:46:16.225Z,126
2019-05-14T07:47:18.544Z,122
2019-05-14T07:48:20.826Z,131
2019-05-14T07:49:23.152Z,132
2019-05-14T07:50:25.394Z,126
2019-05-14T07:51:27.597Z,138
2019-05-14T07:52:30.162Z,130
2019-05-14T07:53:32.153Z,133
2019-05-14T07:54:34.527Z,132
2019-05-14T07:55:36.741Z,133
2019-05-14T07:56:39.025Z,129
2019-05-14T07:57:41.438Z,128
2019-05-14T07:58:43.536Z,122
2019-05-14T07:59:45.855Z,120
2019-05-14T08:00:48.053Z,133
2019-05-14T08:01:50.399Z,124
2019-05-14T08:02:52.669Z,123
2019-05-14T08:03:54.913Z,131
2019-05-14T08:04:57.165Z,133
2019-05-14T08:05:59.437Z,131
2019-05-14T08:07:01.687Z,128
2019-05-14T08:08:03.988Z,140
2019-05-14T08:09:06.341Z,141
2019-05-14T08:10:08.580Z,162
2019-05-14T08:11:11.478Z,148
2019-05-14T08:12:13.052Z,140
2019-05-14T08:13:15.295Z,122
2019-05-14T08:14:17.718Z,117
2019-05-14T08:15:19.851Z,124
2019-05-14T08:16:22.118Z,122
2019-05-14T08:17:24.391Z,122
2019-05-14T08:18:26.674Z,133
2019-05-14T08:19:30.532Z,132
2019-05-14T08:20:31.377Z,129
2019-05-14T08:21:33.487Z,131
2019-05-14T08:22:35.846Z,137
2019-05-14T08:23:38.165Z,130
2019-05-14T08:24:40.355Z,137
2019-05-14T08:25:42.613Z,131
2019-05-14T08:26:44.848Z,139
2019-05-14T08:27:47.131Z,134
2019-05-14T08:28:49.507Z,126
2019-05-14T08:29:51.934Z,130
2019-05-14T08:30:53.934Z,129
2019-05-14T08:31:56.204Z,126
2019-05-14T08:32:59.774Z,137
2019-05-14T08:34:00.809Z,116
2019-05-14T08:35:07.005Z,133
2019-05-14T08:36:05.414Z,131
2019-05-14T08:37:07.777Z,129
2019-05-14T08:38:09.917Z,129
2019-05-14T08:39:12.145Z,136
2019-05-14T08:40:15.772Z,125
2019-05-14T08:41:18.697Z,129
2019-05-14T08:42:18.917Z,141
2019-05-14T08:43:23.339Z,124
2019-05-14T08:44:23.471Z,117
2019-05-14T08:45:25.770Z,127
2019-05-14T08:46:28.071Z,138
2019-05-14T08:47:30.418Z,134
2019-05-14T08:48:32.750Z,145
2019-05-14T08:49:34.905Z,138
2019-05-14T08:50:37.136Z,142
2019-05-14T08:51:39.413Z,133
2019-05-14T08:52:41.884Z,139
2019-05-14T08:54:46.569Z,127
2019-05-14T08:55:48.549Z,127
2019-05-14T08:56:50.817Z,135
2019-05-14T08:57:53.313Z,139
2019-05-14T08:58:55.647Z,146
2019-05-14T08:59:57.712Z,147
2019-05-14T09:01:00.087Z,142
2019-05-14T09:02:02.146Z,137
2019-05-14T09:03:04.474Z,124
2019-05-14T09:04:06.785Z,138
2019-05-14T09:05:08.949Z,140
2019-05-14T09:06:11.227Z,131
2019-05-14T09:07:13.535Z,123
2019-05-14T09:08:15.781Z,126
2019-05-14T09:09:18.030Z,146
2019-05-14T09:11:24.396Z,138
2019-05-14T09:12:25.305Z,130
2019-05-14T09:14:29.412Z,151
2019-05-14T09:16:33.980Z,150
2019-05-14T09:17:36.553Z,154
2019-05-14T09:18:38.555Z,147
2019-05-14T09:19:40.910Z,141
2019-05-14T09:20:43.041Z,135
2019-05-14T09:21:45.298Z,141
2019-05-14T09:22:47.596Z,138
2019-05-14T09:23:49.925Z,143
2019-05-14T09:24:52.131Z,145
2019-05-14T09:25:54.408Z,142
2019-05-14T09:26:56.742Z,135
2019-05-14T09:27:59.046Z,139
2019-05-14T09:29:02.622Z,140
2019-05-14T09:30:03.595Z,140
2019-05-14T09:31:05.750Z,136
2019-05-14T09:32:08.045Z,139
2019-05-14T09:33:10.325Z,141
2019-05-14T09:34:12.809Z,128
2019-05-14T09:35:14.849Z,134
2019-05-14T09:36:17.124Z,129
2019-05-14T09:37:19.407Z,136
2019-05-14T09:38:21.956Z,135
2019-05-14T09:39:25.099Z,132
2019-05-14T09:40:28.768Z,131
2019-05-14T09:41:28.533Z,132
2019-05-14T09:42:30.741Z,131
2019-05-14T09:43:33.092Z,131
2019-05-14T09:44:35.338Z,126
2019-05-14T09:45:37.701Z,130
2019-05-14T09:46:39.873Z,122
2019-05-14T09:47:42.211Z,131
2019-05-14T09:48:44.382Z,137
2019-05-14T09:49:50.088Z,133
2019-05-14T09:50:48.946Z,138
2019-05-14T09:51:51.222Z,129
2019-05-14T09:52:53.511Z,128
2019-05-14T09:53:55.821Z,130
2019-05-14T09:54:58.116Z,132
2019-05-14T09:56:00.377Z,126
2019-05-14T09:57:02.653Z,140
2019-05-14T09:58:04.861Z,133
2019-05-14T09:59:07.520Z,132
2019-05-14T10:00:09.988Z,125
2019-05-14T10:01:11.850Z,118
2019-05-14T10:02:14.033Z,118
2019-05-14T10:03:16.409Z,130
2019-05-14T10:04:18.615Z,126
2019-05-14T10:05:20.890Z,127
2019-05-14T10:06:23.286Z,118
2019-05-14T10:07:25.505Z,119
2019-05-14T10:08:30.937Z,126
2019-05-14T10:09:29.930Z,112
2019-05-14T10:12:36.825Z,124
2019-05-14T10:13:39.057Z,129
2019-05-14T10:14:41.301Z,120
2019-05-14T10:15:43.700Z,123
2019-05-14T10:16:45.852Z,114
2019-05-14T10:17:48.209Z,99
2019-05-14T10:18:50.406Z,103
2019-05-14T10:19:52.829Z,112
2019-05-14T10:20:54.960Z,105
2019-05-14T10:21:57.207Z,112
2019-05-14T10:22:59.560Z,110
2019-05-14T10:24:01.830Z,111
2019-05-14T10:25:04.106Z,108
2019-05-14T10:26:06.326Z,110
2019-05-14T10:27:08.627Z,103
2019-05-14T10:28:10.924Z,112
2019-05-14T10:29:13.317Z,103
2019-05-14T10:30:15.379Z,98
2019-05-14T10:31:17.744Z,113
2019-05-14T10:32:19.926Z,115
2019-05-14T10:33:22.207Z,105
2019-05-14T10:34:24.565Z,110
2019-05-14T10:35:26.750Z,122
2019-05-14T10:36:29.045Z,136
2019-05-14T10:37:31.385Z,125
2019-05-14T10:38:33.582Z,124
2019-05-14T10:39:35.875Z,122
2019-05-14T10:40:42.255Z,120
2019-05-14T10:41:40.389Z,109
2019-05-14T10:42:42.718Z,104
2019-05-14T10:43:45.026Z,104
2019-05-14T10:44:47.192Z,115
2019-05-14T10:45:49.485Z,105
2019-05-14T10:46:51.897Z,106
2019-05-14T10:47:54.117Z,105
2019-05-14T10:48:56.381Z,108
2019-05-14T10:49:58.691Z,106
2019-05-14T10:51:04.998Z,102
2019-05-14T10:52:03.261Z,105
2019-05-14T10:53:05.475Z,112
2019-05-14T10:54:07.968Z,111
2019-05-14T10:55:10.095Z,122
2019-05-14T10:56:12.328Z,102
2019-05-14T10:57:14.572Z,101
2019-05-14T10:58:17.420Z,113
2019-05-14T10:59:19.127Z,98
2019-05-14T11:00:21.546Z,103
2019-05-14T11:01:24.139Z,116
2019-05-14T11:02:25.932Z,121
2019-05-14T11:03:28.228Z,122
2019-05-14T11:04:30.515Z,127
2019-05-14T11:05:32.771Z,118
2019-05-14T11:06:35.042Z,114
2019-05-14T11:07:37.442Z,114
2019-05-14T11:08:39.637Z,132
2019-05-14T11:09:42.761Z,109
2019-05-14T11:10:49.205Z,103
2019-05-14T11:11:46.392Z,117
2019-05-14T11:12:48.746Z,125
2019-05-14T11:13:50.981Z,120
2019-05-14T11:14:53.204Z,126
2019-05-14T11:15:55.536Z,112
2019-05-14T11:16:57.868Z,119
2019-05-14T11:18:00.178Z,107
2019-05-14T11:19:02.301Z,111
2019-05-14T11:20:04.565Z,113
2019-05-14T11:21:06.957Z,116
2019-05-14T11:22:09.119Z,112
2019-05-14T11:23:11.395Z,116
2019-05-14T11:24:13.664Z,101
2019-05-14T11:25:16.002Z,107
2019-05-14T11:26:18.212Z,115
2019-05-14T11:27:20.527Z,112
2019-05-14T11:28:22.869Z,99
2019-05-14T11:29:25.032Z,91
2019-05-14T11:30:27.364Z,103
2019-05-14T11:31:29.666Z,108
2019-05-14T11:32:31.860Z,99
2019-05-14T11:33:34.111Z,96
2019-05-14T11:34:36.446Z,98
2019-05-14T11:35:38.667Z,98
2019-05-14T11:36:41.011Z,106
2019-05-14T11:37:43.276Z,109
2019-05-14T11:38:45.603Z,106
2019-05-14T11:39:48.193Z,109
2019-05-14T11:40:54.419Z,106
2019-05-14T11:41:52.362Z,105
2019-05-14T11:42:54.882Z,110
2019-05-14T11:43:56.964Z,106
2019-05-14T11:44:59.118Z,94
2019-05-14T11:46:06.133Z,102
2019-05-14T11:47:03.741Z,95
2019-05-14T11:48:06.001Z,109
2019-05-14T11:49:08.309Z,96
2019-05-14T11:50:10.554Z,89
2019-05-14T11:51:12.903Z,96
2019-05-14T11:52:15.176Z,99
2019-05-14T11:53:17.468Z,95
2019-05-14T11:54:19.737Z,97
2019-05-14T11:55:22.951Z,92
2019-05-14T11:56:24.184Z,93
2019-05-14T11:57:26.459Z,99
2019-05-14T11:58:28.807Z,93
2019-05-14T11:59:31.003Z,101
2019-05-14T12:00:33.459Z,110
2019-05-14T12:01:35.557Z,103
2019-05-14T12:02:37.912Z,104
2019-05-14T12:03:40.124Z,99
2019-05-14T12:04:42.467Z,92
2019-05-14T12:05:44.795Z,112
2019-05-14T12:06:47.038Z,116
2019-05-14T12:07:52.662Z,118
2019-05-14T12:08:51.650Z,118
2019-05-14T12:09:54.225Z,110
2019-05-14T12:10:56.944Z,114
2019-05-14T12:11:58.283Z,121
2019-05-14T12:13:02.133Z,118
2019-05-14T12:14:02.930Z,116
2019-05-14T12:15:05.154Z,115
2019-05-14T12:16:07.441Z,109
2019-05-14T12:17:09.753Z,120
2019-05-14T12:18:12.011Z,126
2019-05-14T12:19:14.859Z,143
2019-05-14T12:20:16.572Z,133
2019-05-14T12:21:18.936Z,109
2019-05-14T12:22:21.124Z,121
2019-05-14T12:23:23.389Z,120
2019-05-14T12:24:25.718Z,120
2019-05-14T12:25:27.881Z,119
2019-05-14T12:26:30.165Z,112
2019-05-14T12:27:32.473Z,116
2019-05-14T12:28:34.896Z,125
2019-05-14T12:29:38.855Z,124
2019-05-14T12:30:39.286Z,117
2019-05-14T12:31:41.480Z,125
2019-05-14T12:32:43.750Z,124
2019-05-14T12:33:46.081Z,127
2019-05-14T12:34:48.346Z,135
2019-05-14T12:35:50.793Z,129
2019-05-14T12:36:53.320Z,133
2019-05-14T12:37:55.186Z,135
2019-05-14T12:38:57.434Z,126
2019-05-14T12:39:59.688Z,127
2019-05-14T12:41:02.045Z,129
2019-05-14T12:42:04.378Z,133
2019-05-14T12:43:07.109Z,128
2019-05-14T12:44:09.191Z,109
2019-05-14T12:45:11.083Z,125
2019-05-14T12:46:13.336Z,116
2019-05-14T12:47:15.766Z,115
2019-05-14T12:48:17.986Z,121
2019-05-14T12:49:20.655Z,125
2019-05-14T12:50:22.947Z,113
2019-05-14T12:51:24.734Z,119
2019-05-14T12:52:27.013Z,110
2019-05-14T12:53:29.356Z,119
2019-05-14T12:54:31.575Z,124
2019-05-14T12:55:34.361Z,122
2019-05-14T12:56:36.257Z,122
2019-05-14T12:57:38.479Z,121
2019-05-14T12:58:40.778Z,130
2019-05-14T12:59:43.028Z,109
2019-05-14T13:00:45.294Z,125
2019-05-14T13:01:47.838Z,122
2019-05-14T13:02:49.806Z,122
2019-05-14T13:03:52.072Z,114
2019-05-14T13:04:54.335Z,119
2019-05-14T13:05:56.602Z,120
2019-05-14T13:06:58.945Z,119
2019-05-14T13:08:01.264Z,111
2019-05-14T13:09:03.459Z,128
2019-05-14T13:10:05.700Z,112
2019-05-14T13:11:08.526Z,124
2019-05-14T13:12:10.427Z,118
2019-05-14T13:13:12.539Z,110
2019-05-14T13:14:14.965Z,116
2019-05-14T13:15:19.595Z,114
2019-05-14T13:16:19.336Z,123
2019-05-14T13:17:21.748Z,123
2019-05-14T13:18:23.873Z,119
2019-05-14T13:19:26.160Z,107
2019-05-14T13:20:28.413Z,104
2019-05-14T13:21:30.875Z,120
2019-05-14T13:22:33.049Z,117
2019-05-14T13:23:35.240Z,123
2019-05-14T13:24:37.623Z,117
2019-05-14T13:25:39.789Z,133
2019-05-14T13:26:42.131Z,133
2019-05-14T13:27:44.429Z,120
2019-05-14T13:28:46.710Z,124
2019-05-14T13:29:49.338Z,111
2019-05-14T13:30:51.129Z,133
2019-05-14T13:31:53.482Z,120
2019-05-14T13:32:55.962Z,107
2019-05-14T13:33:58.054Z,127
2019-05-14T13:35:00.266Z,116
2019-05-14T13:36:02.504Z,113
2019-05-14T13:37:04.774Z,124
2019-05-14T13:38:07.257Z,124
2019-05-14T13:39:09.418Z,110
2019-05-14T13:40:16.573Z,109
2019-05-14T13:40:17.225Z,109
2019-05-14T13:40:18.199Z,109
2019-05-14T13:41:14.955Z,122
2019-05-14T13:42:16.149Z,101
2019-05-14T13:43:18.538Z,110
2019-05-14T13:44:20.754Z,116
2019-05-14T13:45:22.985Z,107
2019-05-14T13:46:25.260Z,111
2019-05-14T13:47:27.696Z,105
2019-05-14T13:48:30.087Z,107
2019-05-14T13:49:32.262Z,107
2019-05-14T13:50:34.455Z,107
2019-05-14T13:51:36.749Z,103
2019-05-14T13:52:39.398Z,100
2019-05-14T13:53:41.242Z,106
2019-05-14T13:54:43.702Z,100
2019-05-14T13:55:45.870Z,101
2019-05-14T13:56:48.595Z,104
2019-05-14T13:57:50.604Z,115
2019-05-14T13:58:52.627Z,91
2019-05-14T13:59:54.868Z,120
2019-05-14T14:00:57.127Z,116
2019-05-14T14:01:59.418Z,121
2019-05-14T14:03:01.676Z,122
2019-05-14T14:04:04.268Z,114
2019-05-14T14:05:06.486Z,118
2019-05-14T14:06:08.650Z,107
2019-05-14T14:07:10.904Z,116
2019-05-14T14:08:13.240Z,99
2019-05-14T14:09:15.598Z,101
2019-05-14T14:10:20.878Z,111
2019-05-14T14:11:20.042Z,103
2019-05-14T14:12:22.389Z,103
2019-05-14T14:13:24.646Z,99
2019-05-14T14:14:26.829Z,95
2019-05-14T14:15:29.190Z,97
2019-05-14T14:16:31.414Z,95
2019-05-14T14:17:33.758Z,99
2019-05-14T14:18:35.950Z,120
2019-05-14T14:19:38.358Z,115
2019-05-14T14:20:40.503Z,105
2019-05-14T14:21:42.739Z,105
2019-05-14T14:22:45.158Z,100
2019-05-14T14:23:49.373Z,103
2019-05-14T14:24:49.557Z,108
2019-05-14T14:25:52.568Z,108
2019-05-14T14:26:54.315Z,114